sensor_id;sensor_type;location;lat;lon;timestamp;P1;durP1;ratioP1;P2;durP2;ratioP2
57071;SDS011;42956;51.366;11.298;2023-10-13T00:01:14;8.55;;;4.43;;
57071;SDS011;42956;51.366;11.298;2023-10-13T00:03:44;6.13;;;3.78;;
57071;SDS011;42956;51.366;11.298;2023-10-13T00:06:17;4.97;;;2.92;;
57071;SDS011;42956;51.366;11.298;2023-10-13T00:08:47;4.47;;;3.38;;
57071;SDS011;42956;51.366;11.298;2023-10-13T00:11:17;10.23;;;4.13;;
57071;SDS011;42956;51.366;11.298;2023-10-13T00:13:48;6.40;;;4.80;;
57071;SDS011;42956;51.366;11.298;2023-10-13T00:16:21;6.20;;;4.10;;
57071;SDS011;42956;51.366;11.298;2023-10-13T00:18:51;8.40;;;3.65;;
57071;SDS011;42956;51.366;11.298;2023-10-13T00:21:27;7.57;;;4.43;;
57071;SDS011;42956;51.366;11.298;2023-10-13T00:24:03;4.15;;;3.30;;
57071;SDS011;42956;51.366;11.298;2023-10-13T00:26:39;7.35;;;3.92;;
57071;SDS011;42956;51.366;11.298;2023-10-13T00:29:10;7.40;;;4.15;;
57071;SDS011;42956;51.366;11.298;2023-10-13T00:31:43;7.05;;;4.80;;
57071;SDS011;42956;51.366;11.298;2023-10-13T00:36:49;9.68;;;4.43;;
57071;SDS011;42956;51.366;11.298;2023-10-13T00:39:40;6.53;;;4.25;;
57071;SDS011;42956;51.366;11.298;2023-10-13T00:42:11;8.85;;;5.45;;
57071;SDS011;42956;51.366;11.298;2023-10-13T00:44:51;8.48;;;4.95;;
57071;SDS011;42956;51.366;11.298;2023-10-13T00:47:21;11.82;;;4.95;;
57071;SDS011;42956;51.366;11.298;2023-10-13T00:50:05;7.75;;;3.72;;
57071;SDS011;42956;51.366;11.298;2023-10-13T00:52:35;6.03;;;3.78;;
57071;SDS011;42956;51.366;11.298;2023-10-13T00:55:09;4.05;;;3.35;;
57071;SDS011;42956;51.366;11.298;2023-10-13T00:57:38;7.05;;;3.55;;
57071;SDS011;42956;51.366;11.298;2023-10-13T01:00:09;5.22;;;4.13;;
57071;SDS011;42956;51.366;11.298;2023-10-13T01:02:46;10.30;;;4.85;;
57071;SDS011;42956;51.366;11.298;2023-10-13T01:05:23;6.28;;;4.85;;
57071;SDS011;42956;51.366;11.298;2023-10-13T01:07:53;7.57;;;4.55;;
57071;SDS011;42956;51.366;11.298;2023-10-13T01:10:25;5.95;;;4.05;;
57071;SDS011;42956;51.366;11.298;2023-10-13T01:12:55;9.00;;;5.50;;
57071;SDS011;42956;51.366;11.298;2023-10-13T01:15:26;12.48;;;5.28;;
57071;SDS011;42956;51.366;11.298;2023-10-13T01:18:06;10.13;;;6.20;;
57071;SDS011;42956;51.366;11.298;2023-10-13T01:20:38;12.02;;;5.93;;
57071;SDS011;42956;51.366;11.298;2023-10-13T01:23:14;6.05;;;4.43;;
57071;SDS011;42956;51.366;11.298;2023-10-13T01:25:46;10.15;;;5.47;;
57071;SDS011;42956;51.366;11.298;2023-10-13T01:28:16;13.98;;;5.18;;
57071;SDS011;42956;51.366;11.298;2023-10-13T01:30:44;5.72;;;4.63;;
57071;SDS011;42956;51.366;11.298;2023-10-13T01:33:17;9.02;;;4.57;;
57071;SDS011;42956;51.366;11.298;2023-10-13T01:35:53;9.10;;;4.53;;
57071;SDS011;42956;51.366;11.298;2023-10-13T01:38:28;10.93;;;4.70;;
57071;SDS011;42956;51.366;11.298;2023-10-13T01:41:00;6.65;;;4.75;;
57071;SDS011;42956;51.366;11.298;2023-10-13T01:43:31;10.10;;;5.18;;
57071;SDS011;42956;51.366;11.298;2023-10-13T01:45:59;8.15;;;5.38;;
57071;SDS011;42956;51.366;11.298;2023-10-13T01:48:30;8.45;;;5.03;;
57071;SDS011;42956;51.366;11.298;2023-10-13T01:50:59;8.48;;;4.90;;
57071;SDS011;42956;51.366;11.298;2023-10-13T01:53:35;9.80;;;5.15;;
57071;SDS011;42956;51.366;11.298;2023-10-13T01:56:04;9.07;;;4.88;;
57071;SDS011;42956;51.366;11.298;2023-10-13T01:58:37;9.52;;;5.85;;
57071;SDS011;42956;51.366;11.298;2023-10-13T02:01:08;8.10;;;4.80;;
57071;SDS011;42956;51.366;11.298;2023-10-13T02:03:40;10.55;;;4.63;;
57071;SDS011;42956;51.366;11.298;2023-10-13T02:06:14;5.88;;;4.43;;
57071;SDS011;42956;51.366;11.298;2023-10-13T02:08:53;8.63;;;5.35;;
57071;SDS011;42956;51.366;11.298;2023-10-13T02:11:25;9.63;;;5.03;;
57071;SDS011;42956;51.366;11.298;2023-10-13T02:13:55;5.97;;;4.80;;
57071;SDS011;42956;51.366;11.298;2023-10-13T02:16:24;6.55;;;5.18;;
57071;SDS011;42956;51.366;11.298;2023-10-13T02:18:54;5.88;;;4.65;;
57071;SDS011;42956;51.366;11.298;2023-10-13T02:21:22;6.43;;;4.45;;
57071;SDS011;42956;51.366;11.298;2023-10-13T02:24:01;8.63;;;5.00;;
57071;SDS011;42956;51.366;11.298;2023-10-13T02:26:30;5.68;;;3.65;;
57071;SDS011;42956;51.366;11.298;2023-10-13T02:29:06;7.97;;;5.38;;
57071;SDS011;42956;51.366;11.298;2023-10-13T02:31:34;7.68;;;3.75;;
57071;SDS011;42956;51.366;11.298;2023-10-13T02:34:05;8.32;;;5.28;;
57071;SDS011;42956;51.366;11.298;2023-10-13T02:36:35;6.97;;;4.45;;
57071;SDS011;42956;51.366;11.298;2023-10-13T02:39:17;6.15;;;4.38;;
57071;SDS011;42956;51.366;11.298;2023-10-13T02:41:51;5.47;;;4.68;;
57071;SDS011;42956;51.366;11.298;2023-10-13T02:44:22;7.63;;;4.80;;
57071;SDS011;42956;51.366;11.298;2023-10-13T02:46:54;13.15;;;5.13;;
57071;SDS011;42956;51.366;11.298;2023-10-13T02:49:26;11.05;;;5.55;;
57071;SDS011;42956;51.366;11.298;2023-10-13T02:51:54;11.25;;;4.35;;
57071;SDS011;42956;51.366;11.298;2023-10-13T02:54:29;7.03;;;4.97;;
57071;SDS011;42956;51.366;11.298;2023-10-13T02:56:58;5.53;;;4.47;;
57071;SDS011;42956;51.366;11.298;2023-10-13T02:59:31;10.18;;;4.15;;
57071;SDS011;42956;51.366;11.298;2023-10-13T03:02:06;7.35;;;4.40;;
57071;SDS011;42956;51.366;11.298;2023-10-13T03:04:46;8.68;;;4.20;;
57071;SDS011;42956;51.366;11.298;2023-10-13T03:07:14;6.15;;;3.47;;
57071;SDS011;42956;51.366;11.298;2023-10-13T03:09:53;12.95;;;4.57;;
57071;SDS011;42956;51.366;11.298;2023-10-13T03:12:24;6.07;;;4.43;;
57071;SDS011;42956;51.366;11.298;2023-10-13T03:15:01;5.05;;;3.80;;
57071;SDS011;42956;51.366;11.298;2023-10-13T03:17:40;8.00;;;5.20;;
57071;SDS011;42956;51.366;11.298;2023-10-13T03:20:11;7.03;;;4.57;;
57071;SDS011;42956;51.366;11.298;2023-10-13T03:22:40;16.67;;;4.43;;
57071;SDS011;42956;51.366;11.298;2023-10-13T03:25:15;14.57;;;5.55;;
57071;SDS011;42956;51.366;11.298;2023-10-13T03:27:50;21.80;;;4.25;;
57071;SDS011;42956;51.366;11.298;2023-10-13T03:30:32;7.38;;;4.95;;
57071;SDS011;42956;51.366;11.298;2023-10-13T03:33:03;8.77;;;5.55;;
57071;SDS011;42956;51.366;11.298;2023-10-13T03:35:39;6.60;;;4.80;;
57071;SDS011;42956;51.366;11.298;2023-10-13T03:38:13;9.93;;;5.05;;
57071;SDS011;42956;51.366;11.298;2023-10-13T03:40:49;10.02;;;5.05;;
57071;SDS011;42956;51.366;11.298;2023-10-13T03:43:23;6.85;;;4.90;;
57071;SDS011;42956;51.366;11.298;2023-10-13T03:45:57;5.00;;;4.07;;
57071;SDS011;42956;51.366;11.298;2023-10-13T03:48:35;8.20;;;3.40;;
57071;SDS011;42956;51.366;11.298;2023-10-13T03:51:19;11.90;;;5.78;;
57071;SDS011;42956;51.366;11.298;2023-10-13T03:53:50;6.50;;;4.90;;
57071;SDS011;42956;51.366;11.298;2023-10-13T03:56:25;12.07;;;5.38;;
57071;SDS011;42956;51.366;11.298;2023-10-13T03:59:07;8.70;;;3.47;;
57071;SDS011;42956;51.366;11.298;2023-10-13T04:01:45;9.02;;;4.50;;
57071;SDS011;42956;51.366;11.298;2023-10-13T04:04:25;6.13;;;4.15;;
57071;SDS011;42956;51.366;11.298;2023-10-13T04:07:15;4.32;;;3.45;;
57071;SDS011;42956;51.366;11.298;2023-10-13T04:10:13;8.77;;;4.70;;
57071;SDS011;42956;51.366;11.298;2023-10-13T04:13:00;6.13;;;4.18;;
57071;SDS011;42956;51.366;11.298;2023-10-13T04:15:43;5.15;;;3.67;;
57071;SDS011;42956;51.366;11.298;2023-10-13T04:18:33;5.30;;;4.13;;
57071;SDS011;42956;51.366;11.298;2023-10-13T04:21:17;10.15;;;3.58;;
57071;SDS011;42956;51.366;11.298;2023-10-13T04:24:07;6.95;;;4.15;;
57071;SDS011;42956;51.366;11.298;2023-10-13T04:26:52;5.80;;;3.90;;
57071;SDS011;42956;51.366;11.298;2023-10-13T04:29:37;4.35;;;3.10;;
57071;SDS011;42956;51.366;11.298;2023-10-13T04:32:18;5.20;;;3.92;;
57071;SDS011;42956;51.366;11.298;2023-10-13T04:34:56;10.10;;;3.05;;
57071;SDS011;42956;51.366;11.298;2023-10-13T04:37:35;6.28;;;3.97;;
57071;SDS011;42956;51.366;11.298;2023-10-13T04:40:15;4.47;;;3.47;;
57071;SDS011;42956;51.366;11.298;2023-10-13T04:42:46;5.25;;;3.75;;
57071;SDS011;42956;51.366;11.298;2023-10-13T04:45:19;8.27;;;3.60;;
57071;SDS011;42956;51.366;11.298;2023-10-13T04:48:21;4.13;;;2.97;;
57071;SDS011;42956;51.366;11.298;2023-10-13T04:51:08;4.47;;;3.30;;
57071;SDS011;42956;51.366;11.298;2023-10-13T04:54:10;4.50;;;3.03;;
57071;SDS011;42956;51.366;11.298;2023-10-13T04:56:52;6.32;;;4.22;;
57071;SDS011;42956;51.366;11.298;2023-10-13T04:59:26;15.75;;;4.00;;
57071;SDS011;42956;51.366;11.298;2023-10-13T05:02:28;5.47;;;3.63;;
57071;SDS011;42956;51.366;11.298;2023-10-13T05:05:11;5.03;;;3.33;;
57071;SDS011;42956;51.366;11.298;2023-10-13T05:08:11;6.18;;;3.45;;
57071;SDS011;42956;51.366;11.298;2023-10-13T05:10:53;6.82;;;2.95;;
57071;SDS011;42956;51.366;11.298;2023-10-13T05:13:36;4.20;;;3.03;;
57071;SDS011;42956;51.366;11.298;2023-10-13T05:16:18;4.43;;;3.90;;
57071;SDS011;42956;51.366;11.298;2023-10-13T05:19:03;9.77;;;3.57;;
57071;SDS011;42956;51.366;11.298;2023-10-13T05:21:46;5.07;;;3.03;;
57071;SDS011;42956;51.366;11.298;2023-10-13T05:24:29;11.25;;;4.72;;
57071;SDS011;42956;51.366;11.298;2023-10-13T05:27:11;8.57;;;5.03;;
57071;SDS011;42956;51.366;11.298;2023-10-13T05:29:54;6.80;;;4.28;;
57071;SDS011;42956;51.366;11.298;2023-10-13T05:32:36;4.85;;;3.78;;
57071;SDS011;42956;51.366;11.298;2023-10-13T05:35:22;8.00;;;4.45;;
57071;SDS011;42956;51.366;11.298;2023-10-13T05:38:04;4.60;;;3.67;;
57071;SDS011;42956;51.366;11.298;2023-10-13T05:40:53;5.63;;;4.10;;
57071;SDS011;42956;51.366;11.298;2023-10-13T05:43:35;4.60;;;3.67;;
57071;SDS011;42956;51.366;11.298;2023-10-13T05:46:17;5.73;;;3.53;;
57071;SDS011;42956;51.366;11.298;2023-10-13T05:49:10;6.88;;;3.88;;
57071;SDS011;42956;51.366;11.298;2023-10-13T05:51:59;5.38;;;4.13;;
57071;SDS011;42956;51.366;11.298;2023-10-13T05:54:34;5.65;;;3.50;;
57071;SDS011;42956;51.366;11.298;2023-10-13T05:57:17;11.68;;;3.53;;
57071;SDS011;42956;51.366;11.298;2023-10-13T06:00:02;8.43;;;4.40;;
57071;SDS011;42956;51.366;11.298;2023-10-13T06:02:45;5.45;;;3.00;;
57071;SDS011;42956;51.366;11.298;2023-10-13T06:05:27;4.97;;;3.37;;
57071;SDS011;42956;51.366;11.298;2023-10-13T06:08:12;7.17;;;3.07;;
57071;SDS011;42956;51.366;11.298;2023-10-13T06:11:00;4.72;;;3.10;;
57071;SDS011;42956;51.366;11.298;2023-10-13T06:13:43;4.10;;;2.90;;
57071;SDS011;42956;51.366;11.298;2023-10-13T06:16:25;3.97;;;3.30;;
57071;SDS011;42956;51.366;11.298;2023-10-13T06:19:08;5.97;;;3.15;;
57071;SDS011;42956;51.366;11.298;2023-10-13T06:21:50;3.00;;;2.35;;
57071;SDS011;42956;51.366;11.298;2023-10-13T06:24:35;4.10;;;3.50;;
57071;SDS011;42956;51.366;11.298;2023-10-13T06:27:18;5.40;;;2.78;;
57071;SDS011;42956;51.366;11.298;2023-10-13T06:30:00;4.30;;;2.90;;
57071;SDS011;42956;51.366;11.298;2023-10-13T06:32:31;3.50;;;2.97;;
57071;SDS011;42956;51.366;11.298;2023-10-13T06:35:01;5.68;;;3.05;;
57071;SDS011;42956;51.366;11.298;2023-10-13T06:37:34;3.63;;;2.58;;
57071;SDS011;42956;51.366;11.298;2023-10-13T06:40:12;4.75;;;3.38;;
57071;SDS011;42956;51.366;11.298;2023-10-13T06:42:52;4.00;;;3.28;;
57071;SDS011;42956;51.366;11.298;2023-10-13T06:45:22;5.20;;;3.05;;
57071;SDS011;42956;51.366;11.298;2023-10-13T06:47:55;3.47;;;3.10;;
57071;SDS011;42956;51.366;11.298;2023-10-13T06:50:25;5.28;;;3.08;;
57071;SDS011;42956;51.366;11.298;2023-10-13T06:52:56;3.90;;;2.70;;
57071;SDS011;42956;51.366;11.298;2023-10-13T06:55:31;4.15;;;2.75;;
57071;SDS011;42956;51.366;11.298;2023-10-13T06:58:03;5.55;;;2.80;;
57071;SDS011;42956;51.366;11.298;2023-10-13T07:00:33;3.28;;;2.58;;
57071;SDS011;42956;51.366;11.298;2023-10-13T07:03:05;5.13;;;2.60;;
57071;SDS011;42956;51.366;11.298;2023-10-13T07:05:36;3.20;;;1.80;;
57071;SDS011;42956;51.366;11.298;2023-10-13T07:08:09;3.75;;;2.10;;
57071;SDS011;42956;51.366;11.298;2023-10-13T07:10:49;4.82;;;2.95;;
57071;SDS011;42956;51.366;11.298;2023-10-13T07:13:29;3.40;;;3.03;;
57071;SDS011;42956;51.366;11.298;2023-10-13T07:16:04;2.63;;;1.80;;
57071;SDS011;42956;51.366;11.298;2023-10-13T07:18:54;4.70;;;2.42;;
57071;SDS011;42956;51.366;11.298;2023-10-13T07:21:32;4.00;;;2.22;;
57071;SDS011;42956;51.366;11.298;2023-10-13T07:24:02;4.78;;;3.03;;
57071;SDS011;42956;51.366;11.298;2023-10-13T07:26:41;2.50;;;2.30;;
57071;SDS011;42956;51.366;11.298;2023-10-13T07:29:12;4.35;;;2.50;;
57071;SDS011;42956;51.366;11.298;2023-10-13T07:31:42;6.00;;;2.15;;
57071;SDS011;42956;51.366;11.298;2023-10-13T07:34:14;6.15;;;2.35;;
57071;SDS011;42956;51.366;11.298;2023-10-13T07:36:52;4.15;;;2.70;;
57071;SDS011;42956;51.366;11.298;2023-10-13T07:39:27;4.85;;;2.83;;
57071;SDS011;42956;51.366;11.298;2023-10-13T07:42:04;4.13;;;2.85;;
57071;SDS011;42956;51.366;11.298;2023-10-13T07:44:42;4.15;;;2.83;;
57071;SDS011;42956;51.366;11.298;2023-10-13T07:47:13;2.13;;;1.92;;
57071;SDS011;42956;51.366;11.298;2023-10-13T07:49:45;5.15;;;3.03;;
57071;SDS011;42956;51.366;11.298;2023-10-13T07:55:03;4.22;;;2.80;;
57071;SDS011;42956;51.366;11.298;2023-10-13T07:57:50;6.03;;;3.65;;
57071;SDS011;42956;51.366;11.298;2023-10-13T08:00:26;8.48;;;4.05;;
57071;SDS011;42956;51.366;11.298;2023-10-13T08:02:56;9.27;;;4.78;;
57071;SDS011;42956;51.366;11.298;2023-10-13T08:05:36;7.45;;;4.20;;
57071;SDS011;42956;51.366;11.298;2023-10-13T08:08:18;12.05;;;6.25;;
57071;SDS011;42956;51.366;11.298;2023-10-13T08:10:49;10.60;;;4.57;;
57071;SDS011;42956;51.366;11.298;2023-10-13T08:13:26;7.43;;;3.88;;
57071;SDS011;42956;51.366;11.298;2023-10-13T08:15:56;5.97;;;3.20;;
57071;SDS011;42956;51.366;11.298;2023-10-13T08:18:33;5.93;;;3.00;;
57071;SDS011;42956;51.366;11.298;2023-10-13T08:21:03;5.07;;;3.53;;
57071;SDS011;42956;51.366;11.298;2023-10-13T08:23:33;5.93;;;3.22;;
57071;SDS011;42956;51.366;11.298;2023-10-13T08:26:18;4.32;;;2.92;;
57071;SDS011;42956;51.366;11.298;2023-10-13T08:29:23;6.72;;;3.40;;
57071;SDS011;42956;51.366;11.298;2023-10-13T08:32:05;3.53;;;2.83;;
57071;SDS011;42956;51.366;11.298;2023-10-13T08:35:03;8.02;;;3.83;;
57071;SDS011;42956;51.366;11.298;2023-10-13T08:38:01;7.63;;;3.78;;
57071;SDS011;42956;51.366;11.298;2023-10-13T08:40:57;5.60;;;3.58;;
57071;SDS011;42956;51.366;11.298;2023-10-13T08:43:49;5.78;;;3.92;;
57071;SDS011;42956;51.366;11.298;2023-10-13T08:46:23;9.30;;;3.35;;
57071;SDS011;42956;51.366;11.298;2023-10-13T08:48:59;6.85;;;4.32;;
57071;SDS011;42956;51.366;11.298;2023-10-13T08:51:43;8.77;;;4.15;;
57071;SDS011;42956;51.366;11.298;2023-10-13T08:54:17;6.03;;;3.15;;
57071;SDS011;42956;51.366;11.298;2023-10-13T08:57:01;7.13;;;3.05;;
57071;SDS011;42956;51.366;11.298;2023-10-13T08:59:47;11.52;;;4.20;;
57071;SDS011;42956;51.366;11.298;2023-10-13T09:02:23;6.78;;;3.47;;
57071;SDS011;42956;51.366;11.298;2023-10-13T09:05:16;5.32;;;3.90;;
57071;SDS011;42956;51.366;11.298;2023-10-13T09:07:58;11.23;;;4.20;;
57071;SDS011;42956;51.366;11.298;2023-10-13T09:10:36;6.50;;;4.10;;
57071;SDS011;42956;51.366;11.298;2023-10-13T09:13:12;10.13;;;3.08;;
57071;SDS011;42956;51.366;11.298;2023-10-13T09:15:48;13.73;;;4.47;;
57071;SDS011;42956;51.366;11.298;2023-10-13T09:18:31;7.22;;;4.07;;
57071;SDS011;42956;51.366;11.298;2023-10-13T09:21:19;9.48;;;4.32;;
57071;SDS011;42956;51.366;11.298;2023-10-13T09:24:21;11.90;;;4.70;;
57071;SDS011;42956;51.366;11.298;2023-10-13T09:26:54;9.70;;;4.30;;
57071;SDS011;42956;51.366;11.298;2023-10-13T09:29:23;11.75;;;4.47;;
57071;SDS011;42956;51.366;11.298;2023-10-13T09:34:29;8.55;;;4.28;;
57071;SDS011;42956;51.366;11.298;2023-10-13T09:37:02;5.78;;;3.63;;
57071;SDS011;42956;51.366;11.298;2023-10-13T09:39:31;9.90;;;4.63;;
57071;SDS011;42956;51.366;11.298;2023-10-13T09:42:12;11.27;;;4.00;;
57071;SDS011;42956;51.366;11.298;2023-10-13T09:44:43;12.45;;;4.47;;
57071;SDS011;42956;51.366;11.298;2023-10-13T09:47:21;8.23;;;3.95;;
57071;SDS011;42956;51.366;11.298;2023-10-13T09:49:54;5.30;;;3.75;;
57071;SDS011;42956;51.366;11.298;2023-10-13T09:52:25;6.82;;;3.75;;
57071;SDS011;42956;51.366;11.298;2023-10-13T09:55:00;11.70;;;3.55;;
57071;SDS011;42956;51.366;11.298;2023-10-13T10:00:11;5.50;;;3.40;;
57071;SDS011;42956;51.366;11.298;2023-10-13T10:02:55;7.55;;;3.58;;
57071;SDS011;42956;51.366;11.298;2023-10-13T10:05:36;9.90;;;3.75;;
57071;SDS011;42956;51.366;11.298;2023-10-13T10:08:04;10.20;;;3.80;;
57071;SDS011;42956;51.366;11.298;2023-10-13T10:10:43;13.15;;;3.83;;
57071;SDS011;42956;51.366;11.298;2023-10-13T10:13:15;6.05;;;3.88;;
57071;SDS011;42956;51.366;11.298;2023-10-13T10:15:50;10.27;;;4.32;;
57071;SDS011;42956;51.366;11.298;2023-10-13T10:18:18;8.23;;;3.40;;
57071;SDS011;42956;51.366;11.298;2023-10-13T10:21:02;8.80;;;3.55;;
57071;SDS011;42956;51.366;11.298;2023-10-13T10:23:34;8.00;;;4.65;;
57071;SDS011;42956;51.366;11.298;2023-10-13T10:26:09;9.48;;;4.80;;
57071;SDS011;42956;51.366;11.298;2023-10-13T10:28:39;6.68;;;3.75;;
57071;SDS011;42956;51.366;11.298;2023-10-13T10:31:09;7.45;;;4.15;;
57071;SDS011;42956;51.366;11.298;2023-10-13T10:33:39;9.90;;;4.05;;
57071;SDS011;42956;51.366;11.298;2023-10-13T10:36:12;12.02;;;5.03;;
57071;SDS011;42956;51.366;11.298;2023-10-13T10:38:53;9.15;;;4.15;;
57071;SDS011;42956;51.366;11.298;2023-10-13T10:41:26;14.55;;;4.72;;
57071;SDS011;42956;51.366;11.298;2023-10-13T10:44:10;9.63;;;4.38;;
57071;SDS011;42956;51.366;11.298;2023-10-13T10:46:44;15.48;;;4.03;;
57071;SDS011;42956;51.366;11.298;2023-10-13T10:49:26;9.35;;;4.45;;
57071;SDS011;42956;51.366;11.298;2023-10-13T10:52:02;15.75;;;4.47;;
57071;SDS011;42956;51.366;11.298;2023-10-13T10:54:32;15.68;;;4.93;;
57071;SDS011;42956;51.366;11.298;2023-10-13T10:57:02;8.52;;;5.10;;
57071;SDS011;42956;51.366;11.298;2023-10-13T10:59:45;14.60;;;6.07;;
57071;SDS011;42956;51.366;11.298;2023-10-13T11:02:35;12.23;;;4.50;;
57071;SDS011;42956;51.366;11.298;2023-10-13T11:05:06;10.68;;;5.00;;
57071;SDS011;42956;51.366;11.298;2023-10-13T11:07:44;11.82;;;4.47;;
57071;SDS011;42956;51.366;11.298;2023-10-13T11:10:17;11.63;;;4.63;;
57071;SDS011;42956;51.366;11.298;2023-10-13T11:12:55;14.23;;;4.65;;
57071;SDS011;42956;51.366;11.298;2023-10-13T11:15:43;12.90;;;4.75;;
57071;SDS011;42956;51.366;11.298;2023-10-13T11:18:14;21.63;;;4.68;;
57071;SDS011;42956;51.366;11.298;2023-10-13T11:20:48;9.13;;;5.20;;
57071;SDS011;42956;51.366;11.298;2023-10-13T11:23:23;15.27;;;5.85;;
57071;SDS011;42956;51.366;11.298;2023-10-13T11:25:59;6.32;;;4.25;;
57071;SDS011;42956;51.366;11.298;2023-10-13T11:28:30;10.15;;;4.63;;
57071;SDS011;42956;51.366;11.298;2023-10-13T11:31:01;12.68;;;4.97;;
57071;SDS011;42956;51.366;11.298;2023-10-13T11:33:43;12.65;;;4.55;;
57071;SDS011;42956;51.366;11.298;2023-10-13T11:36:15;10.35;;;4.10;;
57071;SDS011;42956;51.366;11.298;2023-10-13T11:38:52;9.05;;;4.47;;
57071;SDS011;42956;51.366;11.298;2023-10-13T11:41:24;11.55;;;4.15;;
57071;SDS011;42956;51.366;11.298;2023-10-13T11:44:00;16.08;;;4.20;;
57071;SDS011;42956;51.366;11.298;2023-10-13T11:46:50;12.45;;;4.82;;
57071;SDS011;42956;51.366;11.298;2023-10-13T11:49:34;10.18;;;4.10;;
57071;SDS011;42956;51.366;11.298;2023-10-13T11:52:06;19.83;;;4.60;;
57071;SDS011;42956;51.366;11.298;2023-10-13T11:54:54;10.43;;;4.22;;
57071;SDS011;42956;51.366;11.298;2023-10-13T11:57:24;10.52;;;4.10;;
57071;SDS011;42956;51.366;11.298;2023-10-13T11:59:54;8.30;;;4.63;;
57071;SDS011;42956;51.366;11.298;2023-10-13T12:02:43;14.57;;;4.72;;
57071;SDS011;42956;51.366;11.298;2023-10-13T12:05:26;14.82;;;4.85;;
57071;SDS011;42956;51.366;11.298;2023-10-13T12:08:16;17.17;;;5.30;;
57071;SDS011;42956;51.366;11.298;2023-10-13T12:10:52;9.68;;;5.00;;
57071;SDS011;42956;51.366;11.298;2023-10-13T12:13:49;10.57;;;4.43;;
57071;SDS011;42956;51.366;11.298;2023-10-13T12:16:19;11.90;;;5.35;;
57071;SDS011;42956;51.366;11.298;2023-10-13T12:18:49;13.45;;;4.63;;
57071;SDS011;42956;51.366;11.298;2023-10-13T12:21:20;13.27;;;5.07;;
57071;SDS011;42956;51.366;11.298;2023-10-13T12:23:50;9.32;;;4.30;;
57071;SDS011;42956;51.366;11.298;2023-10-13T12:26:24;10.52;;;4.20;;
57071;SDS011;42956;51.366;11.298;2023-10-13T12:28:59;11.07;;;4.85;;
57071;SDS011;42956;51.366;11.298;2023-10-13T12:31:33;11.38;;;5.47;;
57071;SDS011;42956;51.366;11.298;2023-10-13T12:34:06;15.73;;;6.35;;
57071;SDS011;42956;51.366;11.298;2023-10-13T12:36:45;20.33;;;6.05;;
57071;SDS011;42956;51.366;11.298;2023-10-13T12:39:20;15.55;;;5.40;;
57071;SDS011;42956;51.366;11.298;2023-10-13T12:42:05;9.05;;;4.05;;
57071;SDS011;42956;51.366;11.298;2023-10-13T12:44:48;11.13;;;5.47;;
57071;SDS011;42956;51.366;11.298;2023-10-13T12:47:31;12.65;;;4.30;;
57071;SDS011;42956;51.366;11.298;2023-10-13T12:50:13;9.35;;;4.68;;
57071;SDS011;42956;51.366;11.298;2023-10-13T12:52:53;7.72;;;4.82;;
57071;SDS011;42956;51.366;11.298;2023-10-13T12:55:24;11.82;;;5.03;;
57071;SDS011;42956;51.366;11.298;2023-10-13T12:57:57;10.43;;;4.72;;
57071;SDS011;42956;51.366;11.298;2023-10-13T13:00:27;7.43;;;4.97;;
57071;SDS011;42956;51.366;11.298;2023-10-13T13:03:00;14.40;;;5.43;;
57071;SDS011;42956;51.366;11.298;2023-10-13T13:05:38;8.75;;;4.60;;
57071;SDS011;42956;51.366;11.298;2023-10-13T13:08:12;29.55;;;6.22;;
57071;SDS011;42956;51.366;11.298;2023-10-13T13:10:49;8.23;;;4.35;;
57071;SDS011;42956;51.366;11.298;2023-10-13T13:13:22;16.55;;;5.20;;
57071;SDS011;42956;51.366;11.298;2023-10-13T13:15:54;9.65;;;4.53;;
57071;SDS011;42956;51.366;11.298;2023-10-13T13:18:24;9.88;;;4.50;;
57071;SDS011;42956;51.366;11.298;2023-10-13T13:20:55;11.68;;;5.03;;
57071;SDS011;42956;51.366;11.298;2023-10-13T13:23:27;8.03;;;4.70;;
57071;SDS011;42956;51.366;11.298;2023-10-13T13:25:58;10.18;;;5.20;;
57071;SDS011;42956;51.366;11.298;2023-10-13T13:28:31;17.15;;;5.25;;
57071;SDS011;42956;51.366;11.298;2023-10-13T13:31:05;12.85;;;5.93;;
57071;SDS011;42956;51.366;11.298;2023-10-13T13:33:35;8.98;;;4.70;;
57071;SDS011;42956;51.366;11.298;2023-10-13T13:36:06;13.07;;;5.80;;
57071;SDS011;42956;51.366;11.298;2023-10-13T13:38:43;10.90;;;5.05;;
57071;SDS011;42956;51.366;11.298;2023-10-13T13:41:17;10.70;;;5.47;;
57071;SDS011;42956;51.366;11.298;2023-10-13T13:43:50;10.45;;;4.47;;
57071;SDS011;42956;51.366;11.298;2023-10-13T13:46:25;9.40;;;5.28;;
57071;SDS011;42956;51.366;11.298;2023-10-13T13:49:00;5.88;;;4.72;;
57071;SDS011;42956;51.366;11.298;2023-10-13T13:51:34;6.88;;;4.65;;
57071;SDS011;42956;51.366;11.298;2023-10-13T13:54:05;13.60;;;5.05;;
57071;SDS011;42956;51.366;11.298;2023-10-13T13:56:36;5.75;;;3.67;;
57071;SDS011;42956;51.366;11.298;2023-10-13T13:59:10;10.20;;;4.30;;
57071;SDS011;42956;51.366;11.298;2023-10-13T14:01:43;17.30;;;6.30;;
57071;SDS011;42956;51.366;11.298;2023-10-13T14:04:14;7.53;;;4.60;;
57071;SDS011;42956;51.366;11.298;2023-10-13T14:06:45;8.50;;;4.68;;
57071;SDS011;42956;51.366;11.298;2023-10-13T14:09:17;9.73;;;5.05;;
57071;SDS011;42956;51.366;11.298;2023-10-13T14:11:59;8.60;;;4.43;;
57071;SDS011;42956;51.366;11.298;2023-10-13T14:14:45;12.80;;;4.75;;
57071;SDS011;42956;51.366;11.298;2023-10-13T14:17:23;16.95;;;6.07;;
57071;SDS011;42956;51.366;11.298;2023-10-13T14:19:56;13.23;;;4.80;;
57071;SDS011;42956;51.366;11.298;2023-10-13T14:22:27;10.50;;;4.97;;
57071;SDS011;42956;51.366;11.298;2023-10-13T14:25:04;8.52;;;4.25;;
57071;SDS011;42956;51.366;11.298;2023-10-13T14:27:36;6.97;;;4.72;;
57071;SDS011;42956;51.366;11.298;2023-10-13T14:30:09;11.77;;;5.20;;
57071;SDS011;42956;51.366;11.298;2023-10-13T14:32:46;6.50;;;4.28;;
57071;SDS011;42956;51.366;11.298;2023-10-13T14:35:17;18.92;;;5.28;;
57071;SDS011;42956;51.366;11.298;2023-10-13T14:37:47;7.50;;;4.80;;
57071;SDS011;42956;51.366;11.298;2023-10-13T14:40:17;12.50;;;5.32;;
57071;SDS011;42956;51.366;11.298;2023-10-13T14:42:48;18.02;;;5.70;;
57071;SDS011;42956;51.366;11.298;2023-10-13T14:45:21;14.20;;;4.93;;
57071;SDS011;42956;51.366;11.298;2023-10-13T14:47:51;10.38;;;5.40;;
57071;SDS011;42956;51.366;11.298;2023-10-13T14:50:21;11.02;;;5.38;;
57071;SDS011;42956;51.366;11.298;2023-10-13T14:52:51;12.45;;;5.65;;
57071;SDS011;42956;51.366;11.298;2023-10-13T14:55:21;22.92;;;5.85;;
57071;SDS011;42956;51.366;11.298;2023-10-13T14:58:08;9.55;;;5.35;;
57071;SDS011;42956;51.366;11.298;2023-10-13T15:00:45;7.90;;;4.95;;
57071;SDS011;42956;51.366;11.298;2023-10-13T15:03:15;14.82;;;5.32;;
57071;SDS011;42956;51.366;11.298;2023-10-13T15:05:45;10.68;;;5.00;;
57071;SDS011;42956;51.366;11.298;2023-10-13T15:08:15;8.98;;;4.70;;
57071;SDS011;42956;51.366;11.298;2023-10-13T15:10:45;15.82;;;4.88;;
57071;SDS011;42956;51.366;11.298;2023-10-13T15:13:15;11.80;;;5.25;;
57071;SDS011;42956;51.366;11.298;2023-10-13T15:15:48;8.55;;;4.72;;
57071;SDS011;42956;51.366;11.298;2023-10-13T15:18:18;16.38;;;5.25;;
57071;SDS011;42956;51.366;11.298;2023-10-13T15:20:50;15.00;;;5.40;;
57071;SDS011;42956;51.366;11.298;2023-10-13T15:23:20;11.73;;;4.90;;
57071;SDS011;42956;51.366;11.298;2023-10-13T15:25:52;8.82;;;4.43;;
57071;SDS011;42956;51.366;11.298;2023-10-13T15:28:24;18.05;;;5.60;;
57071;SDS011;42956;51.366;11.298;2023-10-13T15:31:00;9.80;;;5.13;;
57071;SDS011;42956;51.366;11.298;2023-10-13T15:33:37;7.43;;;4.30;;
57071;SDS011;42956;51.366;11.298;2023-10-13T15:36:10;8.48;;;5.55;;